sensor_id;sensor_type;location;lat;lon;timestamp;P1;durP1;ratioP1;P2;durP2;ratioP2
15915;SDS011;8057;47.830;-3.870;2022-08-21T00:02:56;8.77;;;3.00;;
15915;SDS011;8057;47.830;-3.870;2022-08-21T00:07:14;6.83;;;3.10;;
15915;SDS011;8057;47.830;-3.870;2022-08-21T00:11:52;9.70;;;3.07;;
15915;SDS011;8057;47.830;-3.870;2022-08-21T00:16:03;8.10;;;3.10;;
15915;SDS011;8057;47.830;-3.870;2022-08-21T00:20:18;8.03;;;3.10;;
15915;SDS011;8057;47.830;-3.870;2022-08-21T00:24:34;8.03;;;3.00;;
15915;SDS011;8057;47.830;-3.870;2022-08-21T00:28:59;8.63;;;3.03;;
15915;SDS011;8057;47.830;-3.870;2022-08-21T00:33:13;7.00;;;3.30;;
15915;SDS011;8057;47.830;-3.870;2022-08-21T00:37:27;8.33;;;3.37;;
15915;SDS011;8057;47.830;-3.870;2022-08-21T00:41:45;6.47;;;3.10;;
15915;SDS011;8057;47.830;-3.870;2022-08-21T00:46:00;8.47;;;3.43;;
15915;SDS011;8057;47.830;-3.870;2022-08-21T00:50:22;8.87;;;3.33;;
15915;SDS011;8057;47.830;-3.870;2022-08-21T00:54:34;8.50;;;3.30;;
15915;SDS011;8057;47.830;-3.870;2022-08-21T00:58:55;7.37;;;2.83;;
15915;SDS011;8057;47.830;-3.870;2022-08-21T01:03:08;6.53;;;3.00;;
15915;SDS011;8057;47.830;-3.870;2022-08-21T01:07:31;6.20;;;2.50;;
15915;SDS011;8057;47.830;-3.870;2022-08-21T01:11:43;5.10;;;2.50;;
15915;SDS011;8057;47.830;-3.870;2022-08-21T01:15:59;6.57;;;2.90;;
15915;SDS011;8057;47.830;-3.870;2022-08-21T01:20:11;6.70;;;2.87;;
15915;SDS011;8057;47.830;-3.870;2022-08-21T01:24:22;4.67;;;2.43;;
15915;SDS011;8057;47.830;-3.870;2022-08-21T01:28:42;6.27;;;2.60;;
15915;SDS011;8057;47.830;-3.870;2022-08-21T01:32:57;7.97;;;3.27;;
15915;SDS011;8057;47.830;-3.870;2022-08-21T01:37:07;6.73;;;2.83;;
15915;SDS011;8057;47.830;-3.870;2022-08-21T01:41:23;7.37;;;3.23;;
15915;SDS011;8057;47.830;-3.870;2022-08-21T01:45:34;6.10;;;3.20;;
15915;SDS011;8057;47.830;-3.870;2022-08-21T01:49:44;9.13;;;3.80;;
15915;SDS011;8057;47.830;-3.870;2022-08-21T01:53:53;10.30;;;4.30;;
15915;SDS011;8057;47.830;-3.870;2022-08-21T01:58:09;8.67;;;3.50;;
15915;SDS011;8057;47.830;-3.870;2022-08-21T02:02:20;8.17;;;3.53;;
15915;SDS011;8057;47.830;-3.870;2022-08-21T02:06:32;9.33;;;3.47;;
15915;SDS011;8057;47.830;-3.870;2022-08-21T02:10:43;8.97;;;2.90;;
15915;SDS011;8057;47.830;-3.870;2022-08-21T02:14:59;7.50;;;3.13;;
15915;SDS011;8057;47.830;-3.870;2022-08-21T02:19:10;8.03;;;3.07;;
15915;SDS011;8057;47.830;-3.870;2022-08-21T02:23:21;6.77;;;3.33;;
15915;SDS011;8057;47.830;-3.870;2022-08-21T02:27:39;4.63;;;2.40;;
15915;SDS011;8057;47.830;-3.870;2022-08-21T02:31:57;8.83;;;3.00;;
15915;SDS011;8057;47.830;-3.870;2022-08-21T02:36:11;9.33;;;2.90;;
15915;SDS011;8057;47.830;-3.870;2022-08-21T02:40:22;4.80;;;3.00;;
15915;SDS011;8057;47.830;-3.870;2022-08-21T02:44:35;5.87;;;2.97;;
15915;SDS011;8057;47.830;-3.870;2022-08-21T02:48:49;8.33;;;2.80;;
15915;SDS011;8057;47.830;-3.870;2022-08-21T02:53:02;4.80;;;2.57;;
15915;SDS011;8057;47.830;-3.870;2022-08-21T02:57:16;5.37;;;2.87;;
15915;SDS011;8057;47.830;-3.870;2022-08-21T03:01:33;5.23;;;2.30;;
15915;SDS011;8057;47.830;-3.870;2022-08-21T03:05:45;9.73;;;3.37;;
15915;SDS011;8057;47.830;-3.870;2022-08-21T03:09:54;10.30;;;2.87;;
15915;SDS011;8057;47.830;-3.870;2022-08-21T03:14:03;6.70;;;3.00;;
15915;SDS011;8057;47.830;-3.870;2022-08-21T03:18:13;8.50;;;3.53;;
15915;SDS011;8057;47.830;-3.870;2022-08-21T03:22:24;12.53;;;3.63;;
15915;SDS011;8057;47.830;-3.870;2022-08-21T03:26:36;6.97;;;2.80;;
15915;SDS011;8057;47.830;-3.870;2022-08-21T03:30:48;5.30;;;2.77;;
15915;SDS011;8057;47.830;-3.870;2022-08-21T03:34:59;5.60;;;2.27;;
15915;SDS011;8057;47.830;-3.870;2022-08-21T03:39:10;6.50;;;3.17;;
15915;SDS011;8057;47.830;-3.870;2022-08-21T03:43:19;4.97;;;2.43;;
15915;SDS011;8057;47.830;-3.870;2022-08-21T03:47:29;6.33;;;2.60;;
15915;SDS011;8057;47.830;-3.870;2022-08-21T03:51:38;7.10;;;2.70;;
15915;SDS011;8057;47.830;-3.870;2022-08-21T03:55:49;5.17;;;2.77;;
15915;SDS011;8057;47.830;-3.870;2022-08-21T04:00:00;7.23;;;2.90;;
15915;SDS011;8057;47.830;-3.870;2022-08-21T04:04:10;6.27;;;3.13;;
15915;SDS011;8057;47.830;-3.870;2022-08-21T04:08:19;5.20;;;3.00;;
15915;SDS011;8057;47.830;-3.870;2022-08-21T04:12:31;6.00;;;2.90;;
15915;SDS011;8057;47.830;-3.870;2022-08-21T04:16:40;7.07;;;2.80;;
15915;SDS011;8057;47.830;-3.870;2022-08-21T04:20:50;6.77;;;3.10;;
15915;SDS011;8057;47.830;-3.870;2022-08-21T04:25:04;7.10;;;2.67;;
15915;SDS011;8057;47.830;-3.870;2022-08-21T04:29:15;6.20;;;2.57;;
15915;SDS011;8057;47.830;-3.870;2022-08-21T04:33:26;6.53;;;2.90;;
15915;SDS011;8057;47.830;-3.870;2022-08-21T04:37:36;8.70;;;3.23;;
15915;SDS011;8057;47.830;-3.870;2022-08-21T04:41:48;6.80;;;2.60;;
15915;SDS011;8057;47.830;-3.870;2022-08-21T04:45:59;5.97;;;2.63;;
15915;SDS011;8057;47.830;-3.870;2022-08-21T04:50:08;6.87;;;2.80;;
15915;SDS011;8057;47.830;-3.870;2022-08-21T04:54:19;5.93;;;2.80;;
15915;SDS011;8057;47.830;-3.870;2022-08-21T04:58:30;6.47;;;2.37;;
15915;SDS011;8057;47.830;-3.870;2022-08-21T05:02:42;8.47;;;3.03;;
15915;SDS011;8057;47.830;-3.870;2022-08-21T05:06:53;6.47;;;3.13;;
15915;SDS011;8057;47.830;-3.870;2022-08-21T05:11:05;6.80;;;2.57;;
15915;SDS011;8057;47.830;-3.870;2022-08-21T05:15:15;6.97;;;2.73;;
15915;SDS011;8057;47.830;-3.870;2022-08-21T05:19:26;5.10;;;2.63;;
15915;SDS011;8057;47.830;-3.870;2022-08-21T05:23:35;5.67;;;3.03;;
15915;SDS011;8057;47.830;-3.870;2022-08-21T05:27:45;5.03;;;2.70;;
15915;SDS011;8057;47.830;-3.870;2022-08-21T05:31:57;7.57;;;2.90;;
15915;SDS011;8057;47.830;-3.870;2022-08-21T05:36:08;5.90;;;2.57;;
15915;SDS011;8057;47.830;-3.870;2022-08-21T05:40:18;5.33;;;2.77;;
15915;SDS011;8057;47.830;-3.870;2022-08-21T05:44:29;8.00;;;3.60;;
15915;SDS011;8057;47.830;-3.870;2022-08-21T05:48:38;5.50;;;2.60;;
15915;SDS011;8057;47.830;-3.870;2022-08-21T05:52:50;3.90;;;2.60;;
15915;SDS011;8057;47.830;-3.870;2022-08-21T05:57:10;8.73;;;3.27;;
15915;SDS011;8057;47.830;-3.870;2022-08-21T06:01:19;5.47;;;3.00;;
15915;SDS011;8057;47.830;-3.870;2022-08-21T06:05:29;6.70;;;2.97;;
15915;SDS011;8057;47.830;-3.870;2022-08-21T06:09:44;6.20;;;3.23;;
15915;SDS011;8057;47.830;-3.870;2022-08-21T06:13:54;10.00;;;3.60;;
15915;SDS011;8057;47.830;-3.870;2022-08-21T06:18:03;7.23;;;3.13;;
15915;SDS011;8057;47.830;-3.870;2022-08-21T06:22:13;10.83;;;3.40;;
15915;SDS011;8057;47.830;-3.870;2022-08-21T06:26:24;8.10;;;3.47;;
15915;SDS011;8057;47.830;-3.870;2022-08-21T06:30:35;8.70;;;3.17;;
15915;SDS011;8057;47.830;-3.870;2022-08-21T06:34:46;9.87;;;3.27;;
15915;SDS011;8057;47.830;-3.870;2022-08-21T06:39:03;4.60;;;3.00;;
15915;SDS011;8057;47.830;-3.870;2022-08-21T06:48:32;7.70;;;3.60;;
15915;SDS011;8057;47.830;-3.870;2022-08-21T06:52:46;8.33;;;3.00;;
15915;SDS011;8057;47.830;-3.870;2022-08-21T06:57:11;7.20;;;3.43;;
15915;SDS011;8057;47.830;-3.870;2022-08-21T07:01:24;7.50;;;3.00;;
15915;SDS011;8057;47.830;-3.870;2022-08-21T07:05:51;9.83;;;3.60;;
15915;SDS011;8057;47.830;-3.870;2022-08-21T07:20:01;8.20;;;4.63;;
15915;SDS011;8057;47.830;-3.870;2022-08-21T07:24:20;11.50;;;4.30;;
15915;SDS011;8057;47.830;-3.870;2022-08-21T07:28:32;13.13;;;4.87;;
15915;SDS011;8057;47.830;-3.870;2022-08-21T07:32:42;7.17;;;3.57;;
15915;SDS011;8057;47.830;-3.870;2022-08-21T07:36:52;10.43;;;4.03;;
15915;SDS011;8057;47.830;-3.870;2022-08-21T07:51:45;6.20;;;3.20;;
15915;SDS011;8057;47.830;-3.870;2022-08-21T07:56:09;4.40;;;3.07;;
15915;SDS011;8057;47.830;-3.870;2022-08-21T08:00:22;6.73;;;4.27;;
15915;SDS011;8057;47.830;-3.870;2022-08-21T08:04:40;7.67;;;3.63;;
15915;SDS011;8057;47.830;-3.870;2022-08-21T08:19:25;5.03;;;2.73;;
15915;SDS011;8057;47.830;-3.870;2022-08-21T08:23:44;4.73;;;3.07;;
15915;SDS011;8057;47.830;-3.870;2022-08-21T08:27:53;5.43;;;3.00;;
15915;SDS011;8057;47.830;-3.870;2022-08-21T08:32:04;7.20;;;3.53;;
15915;SDS011;8057;47.830;-3.870;2022-08-21T08:36:14;5.57;;;2.80;;
15915;SDS011;8057;47.830;-3.870;2022-08-21T08:40:28;4.77;;;2.70;;
15915;SDS011;8057;47.830;-3.870;2022-08-21T08:44:48;2.70;;;2.10;;
15915;SDS011;8057;47.830;-3.870;2022-08-21T08:49:07;4.53;;;2.40;;
15915;SDS011;8057;47.830;-3.870;2022-08-21T08:53:22;4.93;;;2.83;;
15915;SDS011;8057;47.830;-3.870;2022-08-21T08:57:36;4.27;;;2.83;;
15915;SDS011;8057;47.830;-3.870;2022-08-21T09:01:48;5.77;;;2.40;;
15915;SDS011;8057;47.830;-3.870;2022-08-21T09:06:00;4.67;;;2.60;;
15915;SDS011;8057;47.830;-3.870;2022-08-21T09:10:17;5.50;;;3.00;;
15915;SDS011;8057;47.830;-3.870;2022-08-21T09:14:31;5.23;;;2.97;;
15915;SDS011;8057;47.830;-3.870;2022-08-21T09:18:59;7.67;;;3.00;;
15915;SDS011;8057;47.830;-3.870;2022-08-21T09:23:19;6.27;;;2.67;;
15915;SDS011;8057;47.830;-3.870;2022-08-21T09:27:35;7.20;;;2.70;;
15915;SDS011;8057;47.830;-3.870;2022-08-21T09:31:44;4.47;;;2.53;;
15915;SDS011;8057;47.830;-3.870;2022-08-21T09:35:55;3.77;;;1.97;;
15915;SDS011;8057;47.830;-3.870;2022-08-21T09:40:15;6.77;;;3.40;;
15915;SDS011;8057;47.830;-3.870;2022-08-21T09:44:30;7.30;;;3.40;;
15915;SDS011;8057;47.830;-3.870;2022-08-21T09:48:42;6.93;;;3.13;;
15915;SDS011;8057;47.830;-3.870;2022-08-21T09:52:54;5.57;;;3.27;;
15915;SDS011;8057;47.830;-3.870;2022-08-21T09:57:14;7.73;;;3.57;;
15915;SDS011;8057;47.830;-3.870;2022-08-21T10:01:53;8.10;;;3.27;;
15915;SDS011;8057;47.830;-3.870;2022-08-21T10:06:03;3.30;;;2.70;;
15915;SDS011;8057;47.830;-3.870;2022-08-21T10:10:18;4.07;;;2.77;;
15915;SDS011;8057;47.830;-3.870;2022-08-21T10:14:37;4.83;;;2.70;;
15915;SDS011;8057;47.830;-3.870;2022-08-21T10:19:02;4.13;;;2.20;;
15915;SDS011;8057;47.830;-3.870;2022-08-21T10:23:26;4.37;;;2.17;;
15915;SDS011;8057;47.830;-3.870;2022-08-21T10:27:46;3.23;;;2.30;;
15915;SDS011;8057;47.830;-3.870;2022-08-21T10:32:06;5.60;;;2.50;;
15915;SDS011;8057;47.830;-3.870;2022-08-21T10:36:32;4.00;;;2.03;;
15915;SDS011;8057;47.830;-3.870;2022-08-21T10:40:48;3.97;;;1.80;;
15915;SDS011;8057;47.830;-3.870;2022-08-21T10:45:15;4.20;;;1.80;;
15915;SDS011;8057;47.830;-3.870;2022-08-21T10:49:36;4.37;;;2.07;;
15915;SDS011;8057;47.830;-3.870;2022-08-21T10:53:54;4.97;;;1.70;;
15915;SDS011;8057;47.830;-3.870;2022-08-21T10:58:08;4.00;;;2.00;;
15915;SDS011;8057;47.830;-3.870;2022-08-21T11:02:19;4.60;;;1.87;;
15915;SDS011;8057;47.830;-3.870;2022-08-21T11:06:35;4.47;;;1.70;;
15915;SDS011;8057;47.830;-3.870;2022-08-21T11:11:15;5.17;;;1.70;;
15915;SDS011;8057;47.830;-3.870;2022-08-21T11:15:36;4.27;;;1.50;;
15915;SDS011;8057;47.830;-3.870;2022-08-21T11:19:50;3.73;;;1.47;;
15915;SDS011;8057;47.830;-3.870;2022-08-21T11:24:08;3.13;;;1.43;;
15915;SDS011;8057;47.830;-3.870;2022-08-21T11:28:26;3.17;;;1.40;;
15915;SDS011;8057;47.830;-3.870;2022-08-21T11:32:53;4.07;;;1.60;;
15915;SDS011;8057;47.830;-3.870;2022-08-21T11:37:16;4.30;;;1.50;;
15915;SDS011;8057;47.830;-3.870;2022-08-21T11:41:35;3.07;;;1.90;;
15915;SDS011;8057;47.830;-3.870;2022-08-21T11:45:49;3.63;;;1.80;;
15915;SDS011;8057;47.830;-3.870;2022-08-21T11:50:03;3.10;;;1.60;;
15915;SDS011;8057;47.830;-3.870;2022-08-21T11:54:42;7.73;;;1.90;;
15915;SDS011;8057;47.830;-3.870;2022-08-21T11:58:56;5.27;;;1.80;;
15915;SDS011;8057;47.830;-3.870;2022-08-21T12:03:10;5.57;;;1.83;;
15915;SDS011;8057;47.830;-3.870;2022-08-21T12:07:30;7.13;;;2.33;;
15915;SDS011;8057;47.830;-3.870;2022-08-21T12:11:45;5.57;;;2.40;;
15915;SDS011;8057;47.830;-3.870;2022-08-21T12:16:06;3.57;;;1.70;;
15915;SDS011;8057;47.830;-3.870;2022-08-21T12:20:23;5.10;;;1.87;;
15915;SDS011;8057;47.830;-3.870;2022-08-21T12:25:03;3.73;;;1.80;;
15915;SDS011;8057;47.830;-3.870;2022-08-21T12:29:16;4.77;;;2.20;;
15915;SDS011;8057;47.830;-3.870;2022-08-21T12:33:32;6.93;;;1.93;;
15915;SDS011;8057;47.830;-3.870;2022-08-21T12:37:46;3.07;;;1.70;;
15915;SDS011;8057;47.830;-3.870;2022-08-21T12:41:59;5.83;;;2.00;;
15915;SDS011;8057;47.830;-3.870;2022-08-21T12:46:14;5.37;;;1.73;;
15915;SDS011;8057;47.830;-3.870;2022-08-21T12:50:29;5.13;;;2.00;;
15915;SDS011;8057;47.830;-3.870;2022-08-21T12:54:43;6.43;;;2.13;;
15915;SDS011;8057;47.830;-3.870;2022-08-21T12:58:54;6.13;;;2.00;;
15915;SDS011;8057;47.830;-3.870;2022-08-21T13:03:06;7.53;;;2.20;;
15915;SDS011;8057;47.830;-3.870;2022-08-21T13:07:19;5.20;;;1.80;;
15915;SDS011;8057;47.830;-3.870;2022-08-21T13:11:33;9.10;;;2.03;;
15915;SDS011;8057;47.830;-3.870;2022-08-21T13:15:46;5.55;;;2.10;;
15915;SDS011;8057;47.830;-3.870;2022-08-21T13:19:56;5.47;;;2.13;;
15915;SDS011;8057;47.830;-3.870;2022-08-21T13:24:11;8.17;;;1.93;;
15915;SDS011;8057;47.830;-3.870;2022-08-21T13:28:44;5.97;;;1.90;;
15915;SDS011;8057;47.830;-3.870;2022-08-21T13:32:56;3.83;;;1.63;;
15915;SDS011;8057;47.830;-3.870;2022-08-21T15:24:34;6.33;;;1.63;;
15915;SDS011;8057;47.830;-3.870;2022-08-21T15:28:43;3.13;;;1.83;;
15915;SDS011;8057;47.830;-3.870;2022-08-21T15:32:52;8.13;;;1.73;;
15915;SDS011;8057;47.830;-3.870;2022-08-21T15:37:02;7.67;;;1.93;;
15915;SDS011;8057;47.830;-3.870;2022-08-21T15:41:15;3.63;;;1.77;;
15915;SDS011;8057;47.830;-3.870;2022-08-21T15:45:26;5.90;;;1.80;;
15915;SDS011;8057;47.830;-3.870;2022-08-21T15:49:36;7.27;;;2.10;;
15915;SDS011;8057;47.830;-3.870;2022-08-21T15:53:45;5.00;;;2.00;;
15915;SDS011;8057;47.830;-3.870;2022-08-21T15:57:56;4.57;;;1.80;;
15915;SDS011;8057;47.830;-3.870;2022-08-21T16:02:11;5.93;;;2.13;;
15915;SDS011;8057;47.830;-3.870;2022-08-21T16:06:23;5.30;;;1.60;;
15915;SDS011;8057;47.830;-3.870;2022-08-21T16:10:52;4.97;;;1.83;;
15915;SDS011;8057;47.830;-3.870;2022-08-21T16:15:04;6.07;;;1.90;;
15915;SDS011;8057;47.830;-3.870;2022-08-21T16:19:26;5.83;;;1.80;;
15915;SDS011;8057;47.830;-3.870;2022-08-21T16:23:37;5.40;;;2.20;;
15915;SDS011;8057;47.830;-3.870;2022-08-21T16:27:48;5.63;;;2.20;;
15915;SDS011;8057;47.830;-3.870;2022-08-21T16:32:06;8.60;;;2.13;;
15915;SDS011;8057;47.830;-3.870;2022-08-21T16:36:15;8.00;;;1.90;;
15915;SDS011;8057;47.830;-3.870;2022-08-21T16:40:25;7.77;;;2.17;;
15915;SDS011;8057;47.830;-3.870;2022-08-21T16:44:34;7.60;;;2.00;;
15915;SDS011;8057;47.830;-3.870;2022-08-21T16:48:44;5.10;;;1.90;;
15915;SDS011;8057;47.830;-3.870;2022-08-21T16:52:53;6.27;;;2.10;;
15915;SDS011;8057;47.830;-3.870;2022-08-21T16:57:03;5.23;;;2.07;;
15915;SDS011;8057;47.830;-3.870;2022-08-21T17:01:14;4.50;;;1.80;;
15915;SDS011;8057;47.830;-3.870;2022-08-21T17:05:28;6.77;;;2.23;;
15915;SDS011;8057;47.830;-3.870;2022-08-21T17:09:37;4.13;;;1.93;;
15915;SDS011;8057;47.830;-3.870;2022-08-21T17:13:46;6.13;;;2.27;;
15915;SDS011;8057;47.830;-3.870;2022-08-21T17:17:56;7.57;;;2.87;;
15915;SDS011;8057;47.830;-3.870;2022-08-21T17:22:08;5.30;;;1.73;;
15915;SDS011;8057;47.830;-3.870;2022-08-21T17:26:17;5.47;;;1.77;;
15915;SDS011;8057;47.830;-3.870;2022-08-21T17:30:27;7.20;;;2.40;;
15915;SDS011;8057;47.830;-3.870;2022-08-21T17:34:37;5.73;;;1.93;;
15915;SDS011;8057;47.830;-3.870;2022-08-21T17:38:49;6.17;;;2.23;;
15915;SDS011;8057;47.830;-3.870;2022-08-21T17:42:58;4.83;;;2.27;;
15915;SDS011;8057;47.830;-3.870;2022-08-21T17:47:08;3.13;;;1.90;;
15915;SDS011;8057;47.830;-3.870;2022-08-21T17:51:19;2.83;;;1.47;;
15915;SDS011;8057;47.830;-3.870;2022-08-21T17:55:31;4.03;;;2.03;;
15915;SDS011;8057;47.830;-3.870;2022-08-21T17:59:41;5.30;;;2.60;;
15915;SDS011;8057;47.830;-3.870;2022-08-21T18:03:50;8.20;;;2.80;;
15915;SDS011;8057;47.830;-3.870;2022-08-21T18:08:02;3.93;;;2.10;;
15915;SDS011;8057;47.830;-3.870;2022-08-21T18:12:18;5.23;;;2.57;;
15915;SDS011;8057;47.830;-3.870;2022-08-21T18:16:28;5.00;;;2.50;;
15915;SDS011;8057;47.830;-3.870;2022-08-21T18:20:39;5.10;;;2.50;;
15915;SDS011;8057;47.830;-3.870;2022-08-21T18:24:48;5.23;;;2.47;;
15915;SDS011;8057;47.830;-3.870;2022-08-21T18:29:00;4.37;;;2.33;;
15915;SDS011;8057;47.830;-3.870;2022-08-21T18:33:12;4.50;;;1.97;;
15915;SDS011;8057;47.830;-3.870;2022-08-21T18:37:22;2.70;;;2.03;;
15915;SDS011;8057;47.830;-3.870;2022-08-21T18:41:31;3.70;;;2.27;;
15915;SDS011;8057;47.830;-3.870;2022-08-21T18:45:42;4.63;;;2.30;;
15915;SDS011;8057;47.830;-3.870;2022-08-21T18:49:52;12.50;;;7.13;;
15915;SDS011;8057;47.830;-3.870;2022-08-21T18:54:02;5.40;;;3.00;;
15915;SDS011;8057;47.830;-3.870;2022-08-21T18:58:18;4.70;;;2.67;;
15915;SDS011;8057;47.830;-3.870;2022-08-21T19:02:29;6.13;;;2.90;;
15915;SDS011;8057;47.830;-3.870;2022-08-21T19:06:39;4.93;;;3.20;;
15915;SDS011;8057;47.830;-3.870;2022-08-21T19:10:53;7.00;;;2.70;;
15915;SDS011;8057;47.830;-3.870;2022-08-21T19:15:04;4.47;;;2.80;;
15915;SDS011;8057;47.830;-3.870;2022-08-21T19:19:18;5.87;;;3.00;;
15915;SDS011;8057;47.830;-3.870;2022-08-21T19:23:27;9.87;;;3.33;;
15915;SDS011;8057;47.830;-3.870;2022-08-21T19:27:41;6.03;;;3.37;;
15915;SDS011;8057;47.830;-3.870;2022-08-21T19:31:51;6.70;;;2.50;;
15915;SDS011;8057;47.830;-3.870;2022-08-21T19:36:04;5.67;;;2.90;;
15915;SDS011;8057;47.830;-3.870;2022-08-21T19:40:15;7.37;;;2.63;;
15915;SDS011;8057;47.830;-3.870;2022-08-21T19:44:28;4.30;;;2.13;;
15915;SDS011;8057;47.830;-3.870;2022-08-21T19:48:38;5.73;;;2.70;;
15915;SDS011;8057;47.830;-3.870;2022-08-21T19:52:53;4.43;;;1.90;;
15915;SDS011;8057;47.830;-3.870;2022-08-21T19:57:04;4.10;;;2.30;;
15915;SDS011;8057;47.830;-3.870;2022-08-21T20:01:15;4.27;;;2.33;;
15915;SDS011;8057;47.830;-3.870;2022-08-21T20:05:26;4.40;;;3.23;;
15915;SDS011;8057;47.830;-3.870;2022-08-21T20:09:47;7.87;;;5.53;;
15915;SDS011;8057;47.830;-3.870;2022-08-21T20:13:56;7.73;;;6.73;;
15915;SDS011;8057;47.830;-3.870;2022-08-21T20:18:26;10.10;;;7.47;;
15915;SDS011;8057;47.830;-3.870;2022-08-21T20:22:35;8.67;;;6.80;;
15915;SDS011;8057;47.830;-3.870;2022-08-21T20:26:48;8.73;;;6.83;;
15915;SDS011;8057;47.830;-3.870;2022-08-21T20:30:58;9.23;;;6.27;;
15915;SDS011;8057;47.830;-3.870;2022-08-21T20:35:08;8.40;;;6.17;;
15915;SDS011;8057;47.830;-3.870;2022-08-21T20:39:37;8.57;;;6.30;;
15915;SDS011;8057;47.830;-3.870;2022-08-21T20:43:49;7.93;;;6.70;;
15915;SDS011;8057;47.830;-3.870;2022-08-21T20:48:00;8.67;;;6.60;;
15915;SDS011;8057;47.830;-3.870;2022-08-21T20:52:11;6.57;;;5.90;;
15915;SDS011;8057;47.830;-3.870;2022-08-21T20:56:30;7.20;;;6.17;;
15915;SDS011;8057;47.830;-3.870;2022-08-21T21:00:47;6.13;;;5.53;;
15915;SDS011;8057;47.830;-3.870;2022-08-21T21:04:59;11.60;;;6.20;;
15915;SDS011;8057;47.830;-3.870;2022-08-21T21:09:13;8.03;;;5.53;;
15915;SDS011;8057;47.830;-3.870;2022-08-21T21:13:27;5.87;;;4.90;;
15915;SDS011;8057;47.830;-3.870;2022-08-21T21:17:42;6.40;;;5.70;;
15915;SDS011;8057;47.830;-3.870;2022-08-21T21:21:55;5.77;;;4.90;;
15915;SDS011;8057;47.830;-3.870;2022-08-21T21:26:11;6.70;;;5.20;;
